Time;durP1;ratioP1;P1;durP2;ratioP2;P2;SDS_P1;SDS_P2;PMS_P1;PMS_P2;Temp;Humidity;BMP_temperature;BMP_pressure;BME280_temperature;BME280_humidity;BME280_pressure;Samples;Min_cycle;Max_cycle;Signal;HPM_P1;HPM_P2
2021/01/11 00:01:04;;;;;;;;;;;-2.80;99.90;;;;;;5069402;28;19909;-68
2021/01/11 00:03:30;;;;;;;;;;;-2.80;99.90;;;;;;5069040;28;20399;-68
2021/01/11 00:05:55;;;;;;;;;;;-2.70;99.90;;;;;;5069941;28;19912;-67
2021/01/11 00:08:21;;;;;;;;;;;-2.80;99.90;;;;;;5068504;28;19913;-68
2021/01/11 00:10:46;;;;;;;;;;;-2.80;99.90;;;;;;5069210;28;19916;-71
2021/01/11 00:13:12;;;;;;;;;;;-2.70;99.90;;;;;;5069150;28;19967;-68
2021/01/11 00:15:37;;;;;;;;;;;-2.60;99.90;;;;;;5069964;28;19913;-68
2021/01/11 00:18:03;;;;;;;;;;;-2.60;99.90;;;;;;5069734;28;19915;-69
2021/01/11 00:20:28;;;;;;;;;;;-2.60;99.90;;;;;;5069228;28;19954;-69
2021/01/11 00:22:54;;;;;;;;;;;-2.60;99.90;;;;;;5068658;28;19943;-69
2021/01/11 00:25:19;;;;;;;;;;;-2.70;99.90;;;;;;5069009;28;20015;-68
2021/01/11 00:27:45;;;;;;;;;;;-2.70;99.90;;;;;;5068622;28;19923;-69
2021/01/11 00:30:11;;;;;;;;;;;-2.70;99.90;;;;;;5069505;28;20287;-70
2021/01/11 00:32:37;;;;;;;;;;;-2.70;99.90;;;;;;5072071;28;19916;-69
2021/01/11 00:35:03;;;;;;;;;;;-2.70;99.90;;;;;;5073388;28;19913;-69
2021/01/11 00:37:29;;;;;;;;;;;-2.60;99.90;;;;;;5072950;28;19908;-69
2021/01/11 00:39:54;;;;;;;;;;;-2.70;99.90;;;;;;5073237;28;19916;-69
2021/01/11 00:42:20;;;;;;;;;;;-2.60;99.90;;;;;;5073244;28;19928;-68
2021/01/11 00:44:46;;;;;;;;;;;-2.50;99.90;;;;;;5073997;28;19912;-68
2021/01/11 00:47:11;;;;;;;;;;;-2.50;99.90;;;;;;5072537;28;20379;-67
2021/01/11 00:49:36;;;;;;;;;;;-2.40;99.90;;;;;;5072926;28;19912;-70
2021/01/11 00:52:03;;;;;;;;;;;-2.50;99.90;;;;;;5072076;28;19966;-67
2021/01/11 00:54:28;;;;;;;;;;;-2.40;99.90;;;;;;5071875;28;19983;-69
2021/01/11 00:56:54;;;;;;;;;;;-2.40;99.90;;;;;;5073355;28;19960;-67
2021/01/11 00:59:19;;;;;;;;;;;-2.40;99.90;;;;;;5073088;28;19913;-69
2021/01/11 01:01:49;;;;;;;;;;;-2.40;99.90;;;;;;5072431;28;19912;-69
2021/01/11 01:04:15;;;;;;;;;;;-2.40;99.90;;;;;;5072169;28;19908;-68
2021/01/11 01:06:40;;;;;;;;;;;-2.30;99.90;;;;;;5072467;28;19920;-68
2021/01/11 01:09:06;;;;;;;;;;;-2.30;99.90;;;;;;5072669;28;19919;-68
2021/01/11 01:11:31;;;;;;;;;;;-2.30;99.90;;;;;;5073309;28;19923;-68
2021/01/11 01:13:58;;;;;;;;;;;-2.30;99.90;;;;;;5072682;28;19912;-68
2021/01/11 01:16:26;;;;;;;;;;;-2.30;99.90;;;;;;5072962;28;20357;-69
2021/01/11 01:18:52;;;;;;;;;;;-2.50;99.90;;;;;;5072580;28;20345;-68
2021/01/11 01:21:18;;;;;;;;;;;-2.60;99.90;;;;;;5073221;28;19939;-69
2021/01/11 01:23:43;;;;;;;;;;;-2.70;99.90;;;;;;5070751;28;20268;-69
2021/01/11 01:26:09;;;;;;;;;;;-2.90;99.90;;;;;;5072065;28;19909;-68
2021/01/11 01:28:34;;;;;;;;;;;-3.10;99.90;;;;;;5070537;28;19952;-68
2021/01/11 01:31:00;;;;;;;;;;;-3.10;99.90;;;;;;5080661;22;19928;-70
2021/01/11 01:33:25;;;;;;;;;;;-3.10;99.90;;;;;;5049784;28;19913;-68
2021/01/11 01:35:51;;;;;;;;;;;-3.00;99.90;;;;;;5050592;28;19959;-69
2021/01/11 01:38:16;;;;;;;;;;;-3.10;99.90;;;;;;5049798;28;19951;-69
2021/01/11 01:40:45;;;;;;;;;;;-3.20;99.90;;;;;;5050418;28;19923;-69
2021/01/11 01:43:11;;;;;;;;;;;-3.30;99.90;;;;;;5048627;28;19908;-69
2021/01/11 01:45:36;;;;;;;;;;;-3.40;99.90;;;;;;5050879;28;20254;-70
2021/01/11 01:48:02;;;;;;;;;;;-3.40;99.90;;;;;;5049738;28;20011;-71
2021/01/11 01:50:28;;;;;;;;;;;-3.30;99.90;;;;;;5049807;28;20323;-69
2021/01/11 01:52:53;;;;;;;;;;;-3.30;99.90;;;;;;5048803;28;19909;-68
2021/01/11 01:55:19;;;;;;;;;;;-3.40;99.90;;;;;;5049786;28;20404;-70
2021/01/11 01:57:45;;;;;;;;;;;-3.40;99.90;;;;;;5050622;28;20380;-69
2021/01/11 02:00:11;;;;;;;;;;;-3.40;99.90;;;;;;5049931;28;19952;-69
2021/01/11 02:02:36;;;;;;;;;;;-3.30;99.90;;;;;;5046595;28;20313;-69
2021/01/11 02:05:02;;;;;;;;;;;-3.20;99.90;;;;;;5048854;28;19958;-70
2021/01/11 02:07:32;;;;;;;;;;;-3.20;99.90;;;;;;5048898;28;19955;-67
2021/01/11 02:10:00;;;;;;;;;;;-3.30;99.90;;;;;;5049278;28;20378;-70
2021/01/11 02:12:34;;;;;;;;;;;-3.40;99.90;;;;;;5049409;28;19971;-68
2021/01/11 02:15:05;;;;;;;;;;;-3.40;99.90;;;;;;5049285;28;20407;-69
2021/01/11 02:17:39;;;;;;;;;;;-3.40;99.90;;;;;;5049264;28;20631;-70
2021/01/11 02:20:08;;;;;;;;;;;-3.40;99.90;;;;;;5049273;28;19909;-70
2021/01/11 02:22:42;;;;;;;;;;;-3.50;99.90;;;;;;5048820;28;20335;-71
2021/01/11 02:25:40;;;;;;;;;;;-3.60;99.90;;;;;;5048645;28;19936;-70
2021/01/11 02:28:14;;;;;;;;;;;-3.70;99.90;;;;;;5026292;28;20693;-69
2021/01/11 02:30:40;;;;;;;;;;;-3.80;99.90;;;;;;5048638;28;19923;-69
2021/01/11 02:33:07;;;;;;;;;;;-3.80;99.90;;;;;;5048025;28;20015;-69
2021/01/11 02:35:51;;;;;;;;;;;-3.60;99.90;;;;;;5049017;28;20296;-69
2021/01/11 02:38:17;;;;;;;;;;;-3.50;99.90;;;;;;5048174;28;19913;-69
2021/01/11 02:40:43;;;;;;;;;;;-3.70;99.90;;;;;;5049319;28;19913;-71
2021/01/11 02:43:09;;;;;;;;;;;-3.70;99.90;;;;;;5048112;28;19959;-70
2021/01/11 02:45:34;;;;;;;;;;;-3.60;99.90;;;;;;5049242;28;20000;-69
2021/01/11 02:48:07;;;;;;;;;;;-3.60;99.90;;;;;;5048545;28;19908;-69
2021/01/11 02:50:53;;;;;;;;;;;-3.60;99.90;;;;;;5048514;28;19917;-67
2021/01/11 02:53:26;;;;;;;;;;;-3.50;99.90;;;;;;5047396;28;19989;-69
2021/01/11 02:55:56;;;;;;;;;;;-3.50;99.90;;;;;;5049008;28;19917;-69
2021/01/11 02:58:25;;;;;;;;;;;-3.50;99.90;;;;;;5048543;28;20008;-71
2021/01/11 03:00:50;;;;;;;;;;;-3.40;99.90;;;;;;5048722;28;20296;-70
2021/01/11 03:03:18;;;;;;;;;;;-3.50;99.90;;;;;;5047556;28;19916;-68
2021/01/11 03:05:43;;;;;;;;;;;-3.40;99.90;;;;;;5048628;28;19909;-68
2021/01/11 03:08:09;;;;;;;;;;;-3.40;99.90;;;;;;5047549;28;19913;-69
2021/01/11 03:10:34;;;;;;;;;;;-3.60;99.90;;;;;;5048509;28;19948;-70
2021/01/11 03:13:00;;;;;;;;;;;-3.60;99.90;;;;;;5047215;28;19913;-70
2021/01/11 03:15:25;;;;;;;;;;;-3.50;99.90;;;;;;5048026;28;20382;-69
2021/01/11 03:17:51;;;;;;;;;;;-3.50;99.90;;;;;;5048067;28;19948;-67
2021/01/11 03:20:16;;;;;;;;;;;-3.60;99.90;;;;;;5048318;28;19909;-69
2021/01/11 03:22:42;;;;;;;;;;;-3.70;99.90;;;;;;5047403;28;19913;-69
2021/01/11 03:25:08;;;;;;;;;;;-4.00;99.90;;;;;;5047703;28;19913;-69
2021/01/11 03:27:33;;;;;;;;;;;-3.80;99.90;;;;;;5048404;28;19909;-66
2021/01/11 03:29:59;;;;;;;;;;;-3.80;99.90;;;;;;5047914;28;19920;-70
2021/01/11 03:32:24;;;;;;;;;;;-3.70;99.90;;;;;;5047571;28;19908;-71
2021/01/11 03:34:50;;;;;;;;;;;-3.70;99.90;;;;;;5047147;28;19913;-70
2021/01/11 03:37:16;;;;;;;;;;;-3.70;99.90;;;;;;5047243;28;20035;-70
2021/01/11 03:39:41;;;;;;;;;;;-3.90;99.90;;;;;;5047650;28;20093;-69
2021/01/11 03:42:07;;;;;;;;;;;-3.80;99.90;;;;;;5047955;28;19956;-70
2021/01/11 03:44:33;;;;;;;;;;;-4.10;99.90;;;;;;5048021;28;20574;-69
2021/01/11 03:46:58;;;;;;;;;;;-3.90;99.90;;;;;;5047313;28;19920;-69
2021/01/11 03:49:24;;;;;;;;;;;-3.90;99.90;;;;;;5047851;28;20071;-69
2021/01/11 03:51:49;;;;;;;;;;;-4.00;99.90;;;;;;5046918;28;19961;-68
2021/01/11 03:54:15;;;;;;;;;;;-4.10;99.90;;;;;;5046707;28;19909;-70
2021/01/11 03:56:40;;;;;;;;;;;-4.20;99.90;;;;;;5047834;28;19916;-70
2021/01/11 03:59:06;;;;;;;;;;;-4.10;99.90;;;;;;5047620;28;19912;-69
2021/01/11 04:01:35;;;;;;;;;;;-4.20;99.90;;;;;;5051883;28;19916;-70
2021/01/11 04:04:00;;;;;;;;;;;-4.20;99.90;;;;;;5066787;28;19963;-70
2021/01/11 04:06:26;;;;;;;;;;;-4.10;99.90;;;;;;5064247;28;19948;-69
2021/01/11 04:08:51;;;;;;;;;;;-4.10;99.90;;;;;;5046759;28;19917;-69
2021/01/11 04:11:17;;;;;;;;;;;-4.10;99.90;;;;;;5047816;28;19913;-70
2021/01/11 04:13:43;;;;;;;;;;;-4.30;99.90;;;;;;5047131;28;20434;-70
2021/01/11 04:16:09;;;;;;;;;;;-4.40;99.90;;;;;;5047733;28;19908;-70
2021/01/11 04:18:35;;;;;;;;;;;-4.40;99.90;;;;;;5047496;28;19909;-70
2021/01/11 04:21:00;;;;;;;;;;;-4.40;99.90;;;;;;5046951;28;20370;-69
2021/01/11 04:23:26;;;;;;;;;;;-4.30;99.90;;;;;;5046253;28;20004;-68
2021/01/11 04:25:51;;;;;;;;;;;-4.40;99.90;;;;;;5047817;28;19917;-70
2021/01/11 04:28:17;;;;;;;;;;;-4.40;99.90;;;;;;5047498;28;19935;-70
2021/01/11 04:30:42;;;;;;;;;;;-4.40;99.90;;;;;;5047402;28;20341;-69
2021/01/11 04:33:10;;;;;;;;;;;;;;;;;;5046307;28;20389;-66
2021/01/11 04:35:36;;;;;;;;;;;-4.40;99.90;;;;;;5047360;28;19913;-69
2021/01/11 04:38:01;;;;;;;;;;;-4.20;99.90;;;;;;5046621;28;20063;-69
2021/01/11 04:40:27;;;;;;;;;;;-4.10;99.90;;;;;;5047608;28;19949;-68
2021/01/11 04:42:58;;;;;;;;;;;-4.00;99.90;;;;;;5047209;28;19940;-67
2021/01/11 04:45:24;;;;;;;;;;;-4.00;99.90;;;;;;5047810;28;20030;-69
2021/01/11 04:47:54;;;;;;;;;;;-4.10;99.90;;;;;;5046895;28;20003;-68
2021/01/11 04:50:20;;;;;;;;;;;-4.00;99.90;;;;;;5047080;28;20003;-71
2021/01/11 04:52:46;;;;;;;;;;;-3.80;99.90;;;;;;5046461;28;20312;-69
2021/01/11 04:55:12;;;;;;;;;;;-3.70;99.90;;;;;;5046949;28;20346;-70
2021/01/11 04:57:48;;;;;;;;;;;-3.60;99.90;;;;;;5047324;28;19913;-70
2021/01/11 05:00:16;;;;;;;;;;;-3.60;99.90;;;;;;5047810;28;20015;-70
2021/01/11 05:02:42;;;;;;;;;;;-3.60;99.90;;;;;;5046477;28;19916;-70
2021/01/11 05:05:09;;;;;;;;;;;-3.70;99.90;;;;;;5046470;28;20004;-70
2021/01/11 05:07:34;;;;;;;;;;;-3.70;99.90;;;;;;5047763;28;19913;-70
2021/01/11 05:09:59;;;;;;;;;;;-3.70;99.90;;;;;;5047076;28;19978;-70
2021/01/11 05:12:26;;;;;;;;;;;-3.80;99.90;;;;;;5046479;28;20369;-69
2021/01/11 05:15:10;;;;;;;;;;;-3.70;99.90;;;;;;5044825;28;19927;-70
2021/01/11 05:17:41;;;;;;;;;;;-3.60;99.90;;;;;;5040394;28;20384;-70
2021/01/11 05:20:06;;;;;;;;;;;-3.60;99.90;;;;;;5043805;28;20290;-70
2021/01/11 05:22:32;;;;;;;;;;;-3.50;99.90;;;;;;5047578;28;19988;-69
2021/01/11 05:25:06;;;;;;;;;;;-3.40;99.90;;;;;;5034677;28;19923;-70
2021/01/11 05:27:32;;;;;;;;;;;-3.40;99.90;;;;;;5043740;28;19921;-66
2021/01/11 05:29:57;;;;;;;;;;;-3.30;99.90;;;;;;5033078;28;19939;-66
2021/01/11 05:32:24;;;;;;;;;;;-3.30;99.90;;;;;;5047336;28;20035;-70
2021/01/11 05:34:51;;;;;;;;;;;-3.20;99.90;;;;;;5047320;28;20733;-70
2021/01/11 05:37:31;;;;;;;;;;;-3.20;99.90;;;;;;5046828;28;20326;-68
2021/01/11 05:40:03;;;;;;;;;;;-3.20;99.90;;;;;;5047316;28;19924;-65
2021/01/11 05:42:28;;;;;;;;;;;-3.30;99.90;;;;;;5047479;28;20008;-68
2021/01/11 05:45:07;;;;;;;;;;;-3.30;99.90;;;;;;5047203;28;20008;-68
2021/01/11 05:47:32;;;;;;;;;;;-3.30;99.90;;;;;;5046135;28;19917;-70
2021/01/11 05:50:06;;;;;;;;;;;-3.40;99.90;;;;;;5047781;28;19920;-70
2021/01/11 05:52:31;;;;;;;;;;;-3.40;99.90;;;;;;5046421;28;19916;-69
2021/01/11 05:54:57;;;;;;;;;;;-3.40;99.90;;;;;;5058016;28;19917;-68
2021/01/11 05:57:22;;;;;;;;;;;-3.40;99.90;;;;;;5053736;28;19963;-67
2021/01/11 05:59:48;;;;;;;;;;;-3.40;99.90;;;;;;5047690;28;19917;-70
2021/01/11 06:02:14;;;;;;;;;;;-3.40;99.90;;;;;;5047155;28;19948;-69
2021/01/11 06:04:39;;;;;;;;;;;-3.40;99.90;;;;;;5046414;28;19913;-68
2021/01/11 06:07:05;;;;;;;;;;;-3.50;99.90;;;;;;5043706;28;20423;-69
2021/01/11 06:09:32;;;;;;;;;;;-3.70;99.90;;;;;;5047929;28;19944;-69
2021/01/11 06:11:59;;;;;;;;;;;-3.80;99.90;;;;;;5047747;28;19939;-69
2021/01/11 06:14:25;;;;;;;;;;;-3.80;99.90;;;;;;5047111;28;19913;-69
2021/01/11 06:16:50;;;;;;;;;;;-3.70;99.90;;;;;;5046794;28;20427;-68
2021/01/11 06:19:16;;;;;;;;;;;-3.80;99.90;;;;;;5047495;28;20274;-69
2021/01/11 06:21:51;;;;;;;;;;;-3.90;99.90;;;;;;5046122;28;19964;-67
2021/01/11 06:24:17;;;;;;;;;;;-4.10;99.90;;;;;;5047619;28;20453;-68
2021/01/11 06:26:43;;;;;;;;;;;-4.50;99.90;;;;;;5048381;28;19944;-70
2021/01/11 06:29:41;;;;;;;;;;;-4.50;99.90;;;;;;5048212;28;19917;-69
2021/01/11 06:32:21;;;;;;;;;;;-4.30;99.90;;;;;;5019143;28;19921;-69
2021/01/11 06:34:47;;;;;;;;;;;-4.10;99.90;;;;;;5044899;28;19924;-66
2021/01/11 06:37:16;;;;;;;;;;;-3.90;99.90;;;;;;5045774;28;19917;-68
2021/01/11 06:39:43;;;;;;;;;;;-3.90;99.90;;;;;;5048343;28;19923;-68
2021/01/11 06:42:11;;;;;;;;;;;-4.10;99.90;;;;;;5048089;28;19994;-69
2021/01/11 06:44:38;;;;;;;;;;;-4.10;99.90;;;;;;5047888;28;19920;-70
2021/01/11 06:47:04;;;;;;;;;;;-4.10;99.90;;;;;;5047824;28;20243;-69
2021/01/11 06:49:30;;;;;;;;;;;-4.10;99.90;;;;;;5048165;28;19932;-69
2021/01/11 06:52:03;;;;;;;;;;;-4.10;99.90;;;;;;5047775;28;19917;-70
2021/01/11 06:54:41;;;;;;;;;;;-4.00;99.90;;;;;;5034381;28;19926;-71
2021/01/11 06:57:08;;;;;;;;;;;-3.90;99.90;;;;;;5031117;28;19921;-68
2021/01/11 06:59:36;;;;;;;;;;;-3.80;99.90;;;;;;5041390;28;19975;-69
2021/01/11 07:02:16;;;;;;;;;;;-3.80;99.90;;;;;;5036749;28;20019;-70
2021/01/11 07:04:44;;;;;;;;;;;-3.80;99.90;;;;;;5029646;28;19917;-69
2021/01/11 07:07:15;;;;;;;;;;;-3.60;99.90;;;;;;5041295;28;19924;-70
2021/01/11 07:09:48;;;;;;;;;;;-3.50;99.90;;;;;;5047694;28;20447;-67
2021/01/11 07:12:17;;;;;;;;;;;-3.50;99.90;;;;;;5048103;28;19920;-69
2021/01/11 07:14:54;;;;;;;;;;;-3.60;99.90;;;;;;5047922;28;20391;-70
2021/01/11 07:17:35;;;;;;;;;;;-3.50;99.90;;;;;;5048135;28;20340;-69
2021/01/11 07:20:00;;;;;;;;;;;-3.50;99.90;;;;;;5047687;28;19967;-70
2021/01/11 07:22:26;;;;;;;;;;;-3.50;99.90;;;;;;5047117;28;19948;-69
2021/01/11 07:24:51;;;;;;;;;;;-3.50;99.90;;;;;;5047048;28;20062;-69
2021/01/11 07:27:18;;;;;;;;;;;-3.90;99.90;;;;;;5048161;28;19916;-69
2021/01/11 07:29:43;;;;;;;;;;;-4.00;99.90;;;;;;5047972;28;19917;-69
2021/01/11 07:32:09;;;;;;;;;;;-4.10;99.90;;;;;;5047499;28;19920;-68
2021/01/11 07:34:34;;;;;;;;;;;-4.10;99.90;;;;;;5047225;28;19913;-69
2021/01/11 07:37:00;;;;;;;;;;;-4.40;99.90;;;;;;5047096;28;19917;-71
2021/01/11 07:39:25;;;;;;;;;;;-4.40;99.90;;;;;;5048014;28;19913;-70
2021/01/11 07:41:55;;;;;;;;;;;-4.40;99.90;;;;;;5046908;28;19974;-67
2021/01/11 07:44:25;;;;;;;;;;;-4.30;99.90;;;;;;5047602;28;19919;-69
2021/01/11 07:46:57;;;;;;;;;;;-4.20;99.90;;;;;;5047163;28;20285;-70
2021/01/11 07:49:24;;;;;;;;;;;-4.30;99.90;;;;;;5047456;28;19917;-68
2021/01/11 07:51:49;;;;;;;;;;;-4.10;99.90;;;;;;5047822;28;19921;-69
2021/01/11 07:54:19;;;;;;;;;;;-4.00;99.90;;;;;;5048304;28;20373;-69
2021/01/11 07:56:45;;;;;;;;;;;-3.80;99.90;;;;;;5068148;28;19908;-70
2021/01/11 07:59:11;;;;;;;;;;;-3.60;99.90;;;;;;5059794;28;19913;-68
2021/01/11 08:01:39;;;;;;;;;;;-3.40;99.90;;;;;;5047373;28;19924;-70
2021/01/11 08:04:05;;;;;;;;;;;-3.40;99.90;;;;;;5046314;28;19917;-69
2021/01/11 08:06:42;;;;;;;;;;;-3.50;99.90;;;;;;5047646;28;19920;-69
2021/01/11 08:09:07;;;;;;;;;;;-3.50;99.90;;;;;;5044353;28;19924;-67
2021/01/11 08:11:33;;;;;;;;;;;-3.50;99.90;;;;;;5047256;28;19920;-69
2021/01/11 08:14:05;;;;;;;;;;;-3.30;99.90;;;;;;5046596;28;19927;-68
2021/01/11 08:16:31;;;;;;;;;;;-3.20;99.90;;;;;;5045159;28;19960;-69
2021/01/11 08:19:02;;;;;;;;;;;-3.00;99.90;;;;;;5046543;28;20384;-69
2021/01/11 08:21:27;;;;;;;;;;;-3.00;99.90;;;;;;5047111;28;20011;-69
2021/01/11 08:23:59;;;;;;;;;;;-2.80;99.90;;;;;;5044948;28;20054;-69
2021/01/11 08:26:26;;;;;;;;;;;-2.80;99.90;;;;;;5053951;28;19923;-69
2021/01/11 08:28:53;;;;;;;;;;;-2.70;99.90;;;;;;5055875;28;20058;-68
2021/01/11 08:31:20;;;;;;;;;;;-2.50;99.90;;;;;;5052680;28;19921;-69
2021/01/11 08:33:45;;;;;;;;;;;-2.40;99.90;;;;;;5045826;28;20103;-69
2021/01/11 08:36:14;;;;;;;;;;;-2.30;99.90;;;;;;5046919;28;20488;-69
2021/01/11 08:38:59;;;;;;;;;;;-2.10;99.90;;;;;;5046317;28;19920;-69
2021/01/11 08:41:25;;;;;;;;;;;-2.00;99.90;;;;;;5046196;28;20044;-69
2021/01/11 08:43:51;;;;;;;;;;;-1.90;99.90;;;;;;5046194;28;19971;-69
2021/01/11 08:46:16;;;;;;;;;;;-1.70;99.90;;;;;;5047682;28;19913;-69
2021/01/11 08:48:42;;;;;;;;;;;-1.70;99.90;;;;;;5055295;28;19954;-69
2021/01/11 08:51:07;;;;;;;;;;;-1.60;99.90;;;;;;5047122;28;19970;-69
2021/01/11 08:53:33;;;;;;;;;;;-1.60;99.90;;;;;;5048756;28;20377;-69
2021/01/11 08:56:04;;;;;;;;;;;-1.50;99.90;;;;;;5051618;28;20704;-68
2021/01/11 08:58:33;;;;;;;;;;;-1.50;99.90;;;;;;5051989;28;19913;-69
2021/01/11 09:01:15;;;;;;;;;;;-1.60;99.90;;;;;;5051052;28;20411;-67
2021/01/11 09:03:45;;;;;;;;;;;-1.70;99.90;;;;;;5050297;28;19947;-69
2021/01/11 09:06:10;;;;;;;;;;;-1.80;99.90;;;;;;5050876;28;19955;-69
2021/01/11 09:08:36;;;;;;;;;;;-1.80;99.90;;;;;;5050048;28;20304;-68
2021/01/11 09:11:08;;;;;;;;;;;-1.60;99.90;;;;;;5051061;28;19989;-69
2021/01/11 09:13:34;;;;;;;;;;;-1.40;99.90;;;;;;5047935;28;20380;-68
2021/01/11 09:16:15;;;;;;;;;;;-1.50;99.90;;;;;;5049074;28;19919;-69
2021/01/11 09:18:41;;;;;;;;;;;-1.60;99.90;;;;;;5049966;28;19940;-70
2021/01/11 09:21:07;;;;;;;;;;;-1.70;99.90;;;;;;5049991;28;19952;-68
2021/01/11 09:23:33;;;;;;;;;;;-2.20;99.90;;;;;;5048396;28;19917;-69
2021/01/11 09:26:00;;;;;;;;;;;-2.60;99.90;;;;;;5049646;28;19978;-69
2021/01/11 09:28:26;;;;;;;;;;;-2.50;99.90;;;;;;5050921;28;20391;-69
2021/01/11 09:30:53;;;;;;;;;;;-2.20;99.90;;;;;;5050238;28;19972;-69
2021/01/11 09:33:18;;;;;;;;;;;-2.10;99.90;;;;;;5049462;28;19919;-68
2021/01/11 09:35:44;;;;;;;;;;;-1.80;99.90;;;;;;5050171;28;19912;-69
2021/01/11 09:38:09;;;;;;;;;;;-1.40;99.90;;;;;;5032873;28;20010;-70
2021/01/11 09:40:35;;;;;;;;;;;-1.30;99.90;;;;;;5030531;28;19910;-69
2021/01/11 09:43:00;;;;;;;;;;;-1.00;99.90;;;;;;5029753;28;19917;-69
2021/01/11 09:45:26;;;;;;;;;;;-1.10;99.90;;;;;;5031238;28;20410;-69
2021/01/11 09:47:51;;;;;;;;;;;-1.20;99.90;;;;;;5045225;28;20262;-68
2021/01/11 09:50:17;;;;;;;;;;;-1.00;99.90;;;;;;5050010;28;20369;-69
2021/01/11 09:52:42;;;;;;;;;;;-0.80;99.90;;;;;;5042454;28;19920;-69
2021/01/11 09:55:10;;;;;;;;;;;-0.70;99.90;;;;;;5029069;28;20242;-69
2021/01/11 09:57:37;;;;;;;;;;;-0.60;99.90;;;;;;5030814;28;19909;-69
2021/01/11 10:00:09;;;;;;;;;;;-1.00;99.90;;;;;;5030333;28;19948;-69
2021/01/11 10:02:34;;;;;;;;;;;-1.10;99.90;;;;;;5029756;28;19996;-69
2021/01/11 10:05:00;;;;;;;;;;;-1.70;99.90;;;;;;5028497;28;20004;-70
2021/01/11 10:07:25;;;;;;;;;;;-1.80;99.90;;;;;;5041459;28;19928;-68
2021/01/11 10:09:51;;;;;;;;;;;-1.80;99.90;;;;;;5049654;28;19912;-69
2021/01/11 10:12:16;;;;;;;;;;;-1.80;99.90;;;;;;5050266;28;19958;-69
2021/01/11 10:14:42;;;;;;;;;;;-2.30;99.90;;;;;;5049924;28;19952;-69
2021/01/11 10:17:07;;;;;;;;;;;-1.80;99.90;;;;;;5049271;28;19912;-68
2021/01/11 10:19:33;;;;;;;;;;;-1.20;99.90;;;;;;5050071;28;19935;-69
2021/01/11 10:21:59;;;;;;;;;;;-0.50;99.90;;;;;;5049355;28;20012;-67
2021/01/11 10:24:25;;;;;;;;;;;-0.20;99.90;;;;;;5049632;28;20324;-68
2021/01/11 10:26:51;;;;;;;;;;;-0.80;99.90;;;;;;5050501;28;19920;-68
2021/01/11 10:29:18;;;;;;;;;;;-0.30;99.90;;;;;;5050490;28;19909;-69
2021/01/11 10:31:44;;;;;;;;;;;0.10;99.90;;;;;;5049446;28;19916;-69
2021/01/11 10:34:10;;;;;;;;;;;0.60;99.90;;;;;;5048666;28;20171;-69
2021/01/11 10:36:43;;;;;;;;;;;1.10;99.90;;;;;;5049768;28;20003;-67
2021/01/11 10:39:09;;;;;;;;;;;1.10;99.90;;;;;;5048697;28;19913;-69
2021/01/11 10:41:34;;;;;;;;;;;0.80;99.90;;;;;;5049960;28;19916;-69
2021/01/11 10:44:00;;;;;;;;;;;0.60;99.90;;;;;;5049148;28;19916;-69
2021/01/11 10:46:26;;;;;;;;;;;0.60;99.90;;;;;;5049737;28;19934;-68
2021/01/11 10:48:53;;;;;;;;;;;0.80;99.90;;;;;;5048617;28;19959;-69
2021/01/11 10:51:21;;;;;;;;;;;1.00;99.90;;;;;;5049496;28;19913;-69
2021/01/11 10:53:46;;;;;;;;;;;1.10;99.90;;;;;;5048029;28;20023;-69
2021/01/11 10:56:12;;;;;;;;;;;1.30;99.90;;;;;;5049857;28;20009;-68
2021/01/11 10:58:37;;;;;;;;;;;1.30;99.90;;;;;;5049392;28;20437;-69
2021/01/11 11:01:11;;;;;;;;;;;1.30;99.90;;;;;;5048908;28;19952;-70
2021/01/11 11:03:37;;;;;;;;;;;1.10;99.90;;;;;;5048255;28;19909;-69
2021/01/11 11:06:02;;;;;;;;;;;0.70;99.90;;;;;;5049266;28;19909;-69
2021/01/11 11:08:28;;;;;;;;;;;0.60;99.90;;;;;;5047645;28;20373;-69
2021/01/11 11:10:53;;;;;;;;;;;0.70;99.90;;;;;;5048685;28;19999;-69
2021/01/11 11:13:19;;;;;;;;;;;0.70;99.90;;;;;;5048119;28;20365;-69
2021/01/11 11:15:45;;;;;;;;;;;0.70;99.90;;;;;;5048549;28;19967;-69
2021/01/11 11:18:11;;;;;;;;;;;0.70;99.90;;;;;;5048318;28;20024;-70
2021/01/11 11:20:37;;;;;;;;;;;0.80;99.90;;;;;;5048105;28;20003;-69
2021/01/11 11:23:02;;;;;;;;;;;0.90;99.90;;;;;;5047224;28;19916;-69
2021/01/11 11:25:28;;;;;;;;;;;0.80;99.90;;;;;;5048472;28;20341;-70
2021/01/11 11:27:53;;;;;;;;;;;1.00;99.90;;;;;;5048957;28;19919;-70
2021/01/11 11:30:19;;;;;;;;;;;1.10;99.90;;;;;;5048622;28;19927;-69
2021/01/11 11:32:45;;;;;;;;;;;1.20;99.90;;;;;;5048077;28;20322;-69
2021/01/11 11:35:11;;;;;;;;;;;1.20;99.90;;;;;;5048270;28;20455;-69
2021/01/11 11:37:36;;;;;;;;;;;1.10;99.90;;;;;;5048894;28;19948;-68
2021/01/11 11:40:03;;;;;;;;;;;1.20;99.90;;;;;;5047678;28;20314;-70
2021/01/11 11:42:37;;;;;;;;;;;1.10;99.90;;;;;;5048879;28;19936;-69
2021/01/11 11:45:06;;;;;;;;;;;1.10;99.90;;;;;;5048119;28;19924;-68
2021/01/11 11:47:36;;;;;;;;;;;1.10;99.90;;;;;;5048348;28;19909;-69
2021/01/11 11:50:03;;;;;;;;;;;1.20;99.90;;;;;;5048216;28;19913;-69
2021/01/11 11:52:29;;;;;;;;;;;1.30;99.90;;;;;;5047990;28;19912;-69
2021/01/11 11:54:54;;;;;;;;;;;1.50;99.90;;;;;;5047576;28;19955;-69
2021/01/11 11:57:20;;;;;;;;;;;1.60;99.90;;;;;;5049346;28;19924;-69
2021/01/11 11:59:46;;;;;;;;;;;1.60;99.90;;;;;;5049532;28;20164;-69
2021/01/11 12:02:12;;;;;;;;;;;1.70;99.90;;;;;;5048181;28;19913;-69
2021/01/11 12:04:38;;;;;;;;;;;1.60;99.90;;;;;;5048094;28;19913;-69
2021/01/11 12:07:03;;;;;;;;;;;1.70;99.90;;;;;;5048138;28;19920;-69
2021/01/11 12:09:29;;;;;;;;;;;1.70;99.90;;;;;;5048044;28;19913;-69
2021/01/11 12:11:54;;;;;;;;;;;1.70;99.90;;;;;;5048747;28;19913;-70
2021/01/11 12:14:20;;;;;;;;;;;1.60;99.90;;;;;;5048770;28;19924;-69
2021/01/11 12:16:49;;;;;;;;;;;1.40;99.90;;;;;;5049224;28;19919;-69
2021/01/11 12:19:14;;;;;;;;;;;1.00;99.90;;;;;;5048349;28;19919;-69
2021/01/11 12:21:40;;;;;;;;;;;0.70;99.90;;;;;;5049184;28;20441;-70
2021/01/11 12:24:06;;;;;;;;;;;0.90;99.90;;;;;;5047036;28;19923;-70
2021/01/11 12:26:44;;;;;;;;;;;1.20;99.90;;;;;;5049274;28;19945;-69
2021/01/11 12:29:09;;;;;;;;;;;1.20;99.90;;;;;;5052374;28;19913;-69
2021/01/11 12:31:35;;;;;;;;;;;1.20;99.90;;;;;;5052417;28;20031;-68
2021/01/11 12:34:01;;;;;;;;;;;1.40;99.90;;;;;;5051278;28;19924;-69
2021/01/11 12:36:27;;;;;;;;;;;1.70;99.90;;;;;;5052688;28;20008;-69
2021/01/11 12:38:52;;;;;;;;;;;1.90;99.90;;;;;;5050976;28;19913;-69
2021/01/11 12:41:19;;;;;;;;;;;2.10;99.90;;;;;;5052208;28;20047;-69
2021/01/11 12:43:44;;;;;;;;;;;2.20;99.90;;;;;;5051874;28;20369;-68
2021/01/11 12:46:14;;;;;;;;;;;2.40;99.90;;;;;;5052192;28;19951;-69
2021/01/11 12:48:39;;;;;;;;;;;2.40;99.90;;;;;;5051459;28;19958;-69
2021/01/11 12:51:09;;;;;;;;;;;2.50;99.90;;;;;;5052260;28;20327;-70
2021/01/11 12:53:35;;;;;;;;;;;2.50;99.90;;;;;;5050291;28;19909;-70
2021/01/11 12:56:00;;;;;;;;;;;2.60;99.90;;;;;;5051910;28;20638;-70
2021/01/11 12:58:26;;;;;;;;;;;2.60;99.90;;;;;;5052586;28;20039;-69
2021/01/11 13:00:51;;;;;;;;;;;2.40;99.90;;;;;;5051732;28;19966;-69
2021/01/11 13:03:17;;;;;;;;;;;2.30;99.90;;;;;;5051120;28;19913;-70
2021/01/11 13:05:47;;;;;;;;;;;2.10;99.90;;;;;;5051538;28;20405;-69
2021/01/11 13:08:12;;;;;;;;;;;1.90;99.90;;;;;;5051399;28;19920;-69
2021/01/11 13:10:38;;;;;;;;;;;1.90;99.90;;;;;;5050978;28;20273;-69
2021/01/11 13:13:03;;;;;;;;;;;1.50;99.90;;;;;;5050765;28;19909;-69
2021/01/11 13:15:29;;;;;;;;;;;1.50;99.90;;;;;;5052113;28;20384;-69
2021/01/11 13:17:54;;;;;;;;;;;1.50;99.90;;;;;;5050880;28;19919;-68
2021/01/11 13:20:20;;;;;;;;;;;1.50;99.90;;;;;;5050722;28;19956;-69
2021/01/11 13:22:45;;;;;;;;;;;1.50;99.90;;;;;;5050680;28;20008;-69
2021/01/11 13:25:13;;;;;;;;;;;1.30;99.90;;;;;;5049577;28;19928;-69
2021/01/11 13:27:41;;;;;;;;;;;1.20;99.90;;;;;;5051257;28;19923;-69
2021/01/11 13:30:07;;;;;;;;;;;1.00;99.90;;;;;;5030849;28;19921;-69
2021/01/11 13:32:32;;;;;;;;;;;0.80;99.90;;;;;;5041949;28;19923;-68
2021/01/11 13:34:58;;;;;;;;;;;0.70;99.90;;;;;;5049802;28;20655;-69
2021/01/11 13:37:23;;;;;;;;;;;0.20;99.90;;;;;;5050403;28;19916;-69
2021/01/11 13:39:49;;;;;;;;;;;0.20;99.90;;;;;;5048609;28;19948;-70
2021/01/11 13:42:14;;;;;;;;;;;0.40;99.90;;;;;;5074916;22;19928;-70
2021/01/11 13:44:40;;;;;;;;;;;0.60;99.90;;;;;;5051498;28;20397;-69
2021/01/11 13:47:05;;;;;;;;;;;0.50;99.90;;;;;;5049928;28;20361;-69
2021/01/11 13:49:31;;;;;;;;;;;0.40;99.90;;;;;;5051115;28;20011;-68
2021/01/11 13:51:58;;;;;;;;;;;0.50;99.90;;;;;;5050406;28;19952;-71
2021/01/11 13:54:25;;;;;;;;;;;0.50;99.90;;;;;;5050293;28;19913;-68
2021/01/11 13:56:50;;;;;;;;;;;0.40;99.90;;;;;;5051133;28;19943;-70
2021/01/11 13:59:16;;;;;;;;;;;0.50;99.90;;;;;;5049719;28;19921;-68
2021/01/11 14:01:42;;;;;;;;;;;0.50;99.90;;;;;;5050971;28;19912;-68
2021/01/11 14:04:08;;;;;;;;;;;0.40;99.90;;;;;;5049863;28;19913;-68
2021/01/11 14:06:34;;;;;;;;;;;0.20;99.90;;;;;;5055179;28;19913;-68
2021/01/11 14:08:59;;;;;;;;;;;0.10;99.90;;;;;;5069764;28;19943;-69
2021/01/11 14:11:25;;;;;;;;;;;-0.40;99.90;;;;;;5070314;28;19920;-69
2021/01/11 14:13:51;;;;;;;;;;;-0.80;99.90;;;;;;5069571;28;19916;-69
2021/01/11 14:16:18;;;;;;;;;;;-1.10;99.90;;;;;;5069931;28;20414;-68
2021/01/11 14:18:44;;;;;;;;;;;-1.80;99.90;;;;;;5067785;28;20578;-68
2021/01/11 14:21:12;;;;;;;;;;;-2.00;99.90;;;;;;5068676;28;19921;-68